sensor_id;sensor_type;location;lat;lon;timestamp;P1;durP1;ratioP1;P2;durP2;ratioP2
70543;SDS011;58097;48.364;-1.224;2022-12-10T00:01:32;21.23;;;11.32;;
70543;SDS011;58097;48.364;-1.224;2022-12-10T00:03:58;30.25;;;11.55;;
70543;SDS011;58097;48.364;-1.224;2022-12-10T00:06:25;32.72;;;11.60;;
70543;SDS011;58097;48.364;-1.224;2022-12-10T00:08:53;28.90;;;14.35;;
70543;SDS011;58097;48.364;-1.224;2022-12-10T00:11:19;30.70;;;13.52;;
70543;SDS011;58097;48.364;-1.224;2022-12-10T00:13:46;29.73;;;12.00;;
70543;SDS011;58097;48.364;-1.224;2022-12-10T00:16:14;23.48;;;13.05;;
70543;SDS011;58097;48.364;-1.224;2022-12-10T00:18:41;20.90;;;10.65;;
70543;SDS011;58097;48.364;-1.224;2022-12-10T00:21:11;33.90;;;14.40;;
70543;SDS011;58097;48.364;-1.224;2022-12-10T00:23:39;20.85;;;9.95;;
70543;SDS011;58097;48.364;-1.224;2022-12-10T00:26:06;25.38;;;10.95;;
70543;SDS011;58097;48.364;-1.224;2022-12-10T00:28:33;29.48;;;10.77;;
70543;SDS011;58097;48.364;-1.224;2022-12-10T00:31:06;26.25;;;11.52;;
70543;SDS011;58097;48.364;-1.224;2022-12-10T00:33:42;26.63;;;11.80;;
70543;SDS011;58097;48.364;-1.224;2022-12-10T00:36:10;20.73;;;10.00;;
70543;SDS011;58097;48.364;-1.224;2022-12-10T00:38:43;27.48;;;13.45;;
70543;SDS011;58097;48.364;-1.224;2022-12-10T00:41:10;27.52;;;14.32;;
70543;SDS011;58097;48.364;-1.224;2022-12-10T00:43:37;25.05;;;12.20;;
70543;SDS011;58097;48.364;-1.224;2022-12-10T00:46:02;27.42;;;13.15;;
70543;SDS011;58097;48.364;-1.224;2022-12-10T00:48:28;30.73;;;13.43;;
70543;SDS011;58097;48.364;-1.224;2022-12-10T00:51:04;26.15;;;13.35;;
70543;SDS011;58097;48.364;-1.224;2022-12-10T00:53:38;30.98;;;12.80;;
70543;SDS011;58097;48.364;-1.224;2022-12-10T00:56:04;29.67;;;13.18;;
70543;SDS011;58097;48.364;-1.224;2022-12-10T00:58:31;22.40;;;12.10;;
70543;SDS011;58097;48.364;-1.224;2022-12-10T01:03:45;19.90;;;10.90;;
70543;SDS011;58097;48.364;-1.224;2022-12-10T01:08:52;18.05;;;9.48;;
70543;SDS011;58097;48.364;-1.224;2022-12-10T01:11:20;17.40;;;9.20;;
70543;SDS011;58097;48.364;-1.224;2022-12-10T01:13:47;20.63;;;10.18;;
70543;SDS011;58097;48.364;-1.224;2022-12-10T01:16:14;15.65;;;8.43;;
70543;SDS011;58097;48.364;-1.224;2022-12-10T01:18:42;17.92;;;7.60;;
70543;SDS011;58097;48.364;-1.224;2022-12-10T01:21:09;22.15;;;9.57;;
70543;SDS011;58097;48.364;-1.224;2022-12-10T01:23:37;16.27;;;9.13;;
70543;SDS011;58097;48.364;-1.224;2022-12-10T01:26:04;17.85;;;8.07;;
70543;SDS011;58097;48.364;-1.224;2022-12-10T01:28:31;12.65;;;7.70;;
70543;SDS011;58097;48.364;-1.224;2022-12-10T01:31:17;13.32;;;8.10;;
70543;SDS011;58097;48.364;-1.224;2022-12-10T01:33:45;16.25;;;6.30;;
70543;SDS011;58097;48.364;-1.224;2022-12-10T01:36:12;22.20;;;8.95;;
70543;SDS011;58097;48.364;-1.224;2022-12-10T01:38:48;14.70;;;8.45;;
70543;SDS011;58097;48.364;-1.224;2022-12-10T01:41:16;13.98;;;7.85;;
70543;SDS011;58097;48.364;-1.224;2022-12-10T01:46:30;15.90;;;8.55;;
70543;SDS011;58097;48.364;-1.224;2022-12-10T01:48:58;15.70;;;8.90;;
70543;SDS011;58097;48.364;-1.224;2022-12-10T01:51:25;17.88;;;8.98;;
70543;SDS011;58097;48.364;-1.224;2022-12-10T01:53:53;19.77;;;11.90;;
70543;SDS011;58097;48.364;-1.224;2022-12-10T01:56:19;20.83;;;11.98;;
70543;SDS011;58097;48.364;-1.224;2022-12-10T01:58:45;29.55;;;10.82;;
70543;SDS011;58097;48.364;-1.224;2022-12-10T02:01:14;19.67;;;10.20;;
70543;SDS011;58097;48.364;-1.224;2022-12-10T02:09:04;16.63;;;9.30;;
70543;SDS011;58097;48.364;-1.224;2022-12-10T02:11:46;15.77;;;9.55;;
70543;SDS011;58097;48.364;-1.224;2022-12-10T02:14:47;17.45;;;9.50;;
70543;SDS011;58097;48.364;-1.224;2022-12-10T02:17:25;13.15;;;8.30;;
70543;SDS011;58097;48.364;-1.224;2022-12-10T02:20:00;17.02;;;9.68;;
70543;SDS011;58097;48.364;-1.224;2022-12-10T02:22:28;19.25;;;11.40;;
70543;SDS011;58097;48.364;-1.224;2022-12-10T02:24:57;23.20;;;10.60;;
70543;SDS011;58097;48.364;-1.224;2022-12-10T02:27:32;23.15;;;11.85;;
70543;SDS011;58097;48.364;-1.224;2022-12-10T02:30:07;20.15;;;11.38;;
70543;SDS011;58097;48.364;-1.224;2022-12-10T02:32:35;24.30;;;11.13;;
70543;SDS011;58097;48.364;-1.224;2022-12-10T02:35:07;26.40;;;12.27;;
70543;SDS011;58097;48.364;-1.224;2022-12-10T02:37:38;24.52;;;12.57;;
70543;SDS011;58097;48.364;-1.224;2022-12-10T02:40:11;28.17;;;11.93;;
70543;SDS011;58097;48.364;-1.224;2022-12-10T02:42:42;19.67;;;10.07;;
70543;SDS011;58097;48.364;-1.224;2022-12-10T02:45:12;20.50;;;9.65;;
70543;SDS011;58097;48.364;-1.224;2022-12-10T02:47:38;18.08;;;10.95;;
70543;SDS011;58097;48.364;-1.224;2022-12-10T02:50:04;12.48;;;7.43;;
70543;SDS011;58097;48.364;-1.224;2022-12-10T02:52:31;14.68;;;7.22;;
70543;SDS011;58097;48.364;-1.224;2022-12-10T02:54:56;17.58;;;8.15;;
70543;SDS011;58097;48.364;-1.224;2022-12-10T03:05:35;18.48;;;8.57;;
70543;SDS011;58097;48.364;-1.224;2022-12-10T03:08:15;15.27;;;8.00;;
70543;SDS011;58097;48.364;-1.224;2022-12-10T03:13:24;15.05;;;8.98;;
70543;SDS011;58097;48.364;-1.224;2022-12-10T03:15:57;14.43;;;7.95;;
70543;SDS011;58097;48.364;-1.224;2022-12-10T03:18:24;12.90;;;8.50;;
70543;SDS011;58097;48.364;-1.224;2022-12-10T03:20:52;14.65;;;8.80;;
70543;SDS011;58097;48.364;-1.224;2022-12-10T03:23:23;17.20;;;8.50;;
70543;SDS011;58097;48.364;-1.224;2022-12-10T03:25:49;24.35;;;10.05;;
70543;SDS011;58097;48.364;-1.224;2022-12-10T03:28:15;12.77;;;8.20;;
70543;SDS011;58097;48.364;-1.224;2022-12-10T03:30:44;20.80;;;9.82;;
70543;SDS011;58097;48.364;-1.224;2022-12-10T03:33:11;20.02;;;8.80;;
70543;SDS011;58097;48.364;-1.224;2022-12-10T03:35:38;16.20;;;8.32;;
70543;SDS011;58097;48.364;-1.224;2022-12-10T03:38:05;16.42;;;9.90;;
70543;SDS011;58097;48.364;-1.224;2022-12-10T03:40:31;15.30;;;9.10;;
70543;SDS011;58097;48.364;-1.224;2022-12-10T03:42:56;16.92;;;8.32;;
70543;SDS011;58097;48.364;-1.224;2022-12-10T03:45:22;13.07;;;8.18;;
70543;SDS011;58097;48.364;-1.224;2022-12-10T03:47:47;13.88;;;8.98;;
70543;SDS011;58097;48.364;-1.224;2022-12-10T03:50:14;14.32;;;8.88;;
70543;SDS011;58097;48.364;-1.224;2022-12-10T03:52:40;17.40;;;9.48;;
70543;SDS011;58097;48.364;-1.224;2022-12-10T03:55:06;17.65;;;9.00;;
70543;SDS011;58097;48.364;-1.224;2022-12-10T03:57:32;14.38;;;8.65;;
70543;SDS011;58097;48.364;-1.224;2022-12-10T03:59:57;11.60;;;7.80;;
70543;SDS011;58097;48.364;-1.224;2022-12-10T04:02:23;14.50;;;8.48;;
70543;SDS011;58097;48.364;-1.224;2022-12-10T04:04:48;13.38;;;7.82;;
70543;SDS011;58097;48.364;-1.224;2022-12-10T04:07:14;18.77;;;8.30;;
70543;SDS011;58097;48.364;-1.224;2022-12-10T04:09:39;23.45;;;10.40;;
70543;SDS011;58097;48.364;-1.224;2022-12-10T04:12:04;15.30;;;8.35;;
70543;SDS011;58097;48.364;-1.224;2022-12-10T04:14:30;14.18;;;8.27;;
70543;SDS011;58097;48.364;-1.224;2022-12-10T04:17:14;29.38;;;9.18;;
70543;SDS011;58097;48.364;-1.224;2022-12-10T04:19:39;18.10;;;9.15;;
70543;SDS011;58097;48.364;-1.224;2022-12-10T04:22:05;17.48;;;9.70;;
70543;SDS011;58097;48.364;-1.224;2022-12-10T04:24:49;16.40;;;7.82;;
70543;SDS011;58097;48.364;-1.224;2022-12-10T04:27:36;14.93;;;9.40;;
70543;SDS011;58097;48.364;-1.224;2022-12-10T04:30:04;14.35;;;8.90;;
70543;SDS011;58097;48.364;-1.224;2022-12-10T04:32:33;20.33;;;10.48;;
70543;SDS011;58097;48.364;-1.224;2022-12-10T04:34:58;17.65;;;9.20;;
70543;SDS011;58097;48.364;-1.224;2022-12-10T04:37:24;20.55;;;10.18;;
70543;SDS011;58097;48.364;-1.224;2022-12-10T04:39:50;21.08;;;10.48;;
70543;SDS011;58097;48.364;-1.224;2022-12-10T04:42:16;18.95;;;8.93;;
70543;SDS011;58097;48.364;-1.224;2022-12-10T04:44:43;19.92;;;9.55;;
70543;SDS011;58097;48.364;-1.224;2022-12-10T04:47:08;19.67;;;10.75;;
70543;SDS011;58097;48.364;-1.224;2022-12-10T04:49:34;18.30;;;8.93;;
70543;SDS011;58097;48.364;-1.224;2022-12-10T04:52:00;17.58;;;9.20;;
70543;SDS011;58097;48.364;-1.224;2022-12-10T04:54:26;19.35;;;9.25;;
70543;SDS011;58097;48.364;-1.224;2022-12-10T04:56:51;15.70;;;9.35;;
70543;SDS011;58097;48.364;-1.224;2022-12-10T04:59:17;14.10;;;8.55;;
70543;SDS011;58097;48.364;-1.224;2022-12-10T05:01:43;17.30;;;10.15;;
70543;SDS011;58097;48.364;-1.224;2022-12-10T05:04:09;26.38;;;10.50;;
70543;SDS011;58097;48.364;-1.224;2022-12-10T05:06:37;17.65;;;9.35;;
70543;SDS011;58097;48.364;-1.224;2022-12-10T05:09:03;19.25;;;10.05;;
70543;SDS011;58097;48.364;-1.224;2022-12-10T05:11:29;18.92;;;9.80;;
70543;SDS011;58097;48.364;-1.224;2022-12-10T05:13:58;17.08;;;9.23;;
70543;SDS011;58097;48.364;-1.224;2022-12-10T05:16:24;19.45;;;9.73;;
70543;SDS011;58097;48.364;-1.224;2022-12-10T05:18:52;15.55;;;9.07;;
70543;SDS011;58097;48.364;-1.224;2022-12-10T05:21:19;19.52;;;9.57;;
70543;SDS011;58097;48.364;-1.224;2022-12-10T05:23:47;21.58;;;10.30;;
70543;SDS011;58097;48.364;-1.224;2022-12-10T05:26:16;27.05;;;9.85;;
70543;SDS011;58097;48.364;-1.224;2022-12-10T05:28:44;15.50;;;9.18;;
70543;SDS011;58097;48.364;-1.224;2022-12-10T05:31:12;20.58;;;8.88;;
70543;SDS011;58097;48.364;-1.224;2022-12-10T05:33:39;13.88;;;8.43;;
70543;SDS011;58097;48.364;-1.224;2022-12-10T05:36:04;17.20;;;9.90;;
70543;SDS011;58097;48.364;-1.224;2022-12-10T05:38:31;14.85;;;8.45;;
70543;SDS011;58097;48.364;-1.224;2022-12-10T05:41:01;17.58;;;10.25;;
70543;SDS011;58097;48.364;-1.224;2022-12-10T05:43:37;16.40;;;8.65;;
70543;SDS011;58097;48.364;-1.224;2022-12-10T05:46:04;17.27;;;8.27;;
70543;SDS011;58097;48.364;-1.224;2022-12-10T05:48:31;17.23;;;9.40;;
70543;SDS011;58097;48.364;-1.224;2022-12-10T05:50:57;17.33;;;9.48;;
70543;SDS011;58097;48.364;-1.224;2022-12-10T05:53:23;14.13;;;9.07;;
70543;SDS011;58097;48.364;-1.224;2022-12-10T05:55:49;16.02;;;8.85;;
70543;SDS011;58097;48.364;-1.224;2022-12-10T05:58:14;16.92;;;9.38;;
70543;SDS011;58097;48.364;-1.224;2022-12-10T06:00:40;14.90;;;9.50;;
70543;SDS011;58097;48.364;-1.224;2022-12-10T06:03:07;19.73;;;10.65;;
70543;SDS011;58097;48.364;-1.224;2022-12-10T06:05:36;19.90;;;9.82;;
70543;SDS011;58097;48.364;-1.224;2022-12-10T06:08:02;16.33;;;9.20;;
70543;SDS011;58097;48.364;-1.224;2022-12-10T06:10:28;23.13;;;9.80;;
70543;SDS011;58097;48.364;-1.224;2022-12-10T06:12:53;13.02;;;8.52;;
70543;SDS011;58097;48.364;-1.224;2022-12-10T06:15:19;15.80;;;9.20;;
70543;SDS011;58097;48.364;-1.224;2022-12-10T06:17:44;13.38;;;8.50;;
70543;SDS011;58097;48.364;-1.224;2022-12-10T06:20:10;19.50;;;10.43;;
70543;SDS011;58097;48.364;-1.224;2022-12-10T06:22:35;18.00;;;10.48;;
70543;SDS011;58097;48.364;-1.224;2022-12-10T06:25:01;17.63;;;9.95;;
70543;SDS011;58097;48.364;-1.224;2022-12-10T06:27:28;15.90;;;10.02;;
70543;SDS011;58097;48.364;-1.224;2022-12-10T06:29:54;13.23;;;8.95;;
70543;SDS011;58097;48.364;-1.224;2022-12-10T06:32:20;14.18;;;8.73;;
70543;SDS011;58097;48.364;-1.224;2022-12-10T06:34:45;13.38;;;8.05;;
70543;SDS011;58097;48.364;-1.224;2022-12-10T06:37:10;13.95;;;7.85;;
70543;SDS011;58097;48.364;-1.224;2022-12-10T06:39:36;15.05;;;8.38;;
70543;SDS011;58097;48.364;-1.224;2022-12-10T06:42:01;16.52;;;9.98;;
70543;SDS011;58097;48.364;-1.224;2022-12-10T06:44:26;25.70;;;11.35;;
70543;SDS011;58097;48.364;-1.224;2022-12-10T06:46:52;19.35;;;10.10;;
70543;SDS011;58097;48.364;-1.224;2022-12-10T06:49:17;20.75;;;9.95;;
70543;SDS011;58097;48.364;-1.224;2022-12-10T06:51:43;22.67;;;11.93;;
70543;SDS011;58097;48.364;-1.224;2022-12-10T06:54:08;16.98;;;10.32;;
70543;SDS011;58097;48.364;-1.224;2022-12-10T06:56:33;17.52;;;10.93;;
70543;SDS011;58097;48.364;-1.224;2022-12-10T06:58:59;21.67;;;10.10;;
70543;SDS011;58097;48.364;-1.224;2022-12-10T07:01:24;18.25;;;9.68;;
70543;SDS011;58097;48.364;-1.224;2022-12-10T07:03:53;17.33;;;10.20;;
70543;SDS011;58097;48.364;-1.224;2022-12-10T07:06:21;12.95;;;8.80;;
70543;SDS011;58097;48.364;-1.224;2022-12-10T07:08:48;14.55;;;8.30;;
70543;SDS011;58097;48.364;-1.224;2022-12-10T07:11:15;14.00;;;9.02;;
70543;SDS011;58097;48.364;-1.224;2022-12-10T07:13:42;15.40;;;8.65;;
70543;SDS011;58097;48.364;-1.224;2022-12-10T07:16:24;16.65;;;8.73;;
70543;SDS011;58097;48.364;-1.224;2022-12-10T07:18:52;10.90;;;7.00;;
70543;SDS011;58097;48.364;-1.224;2022-12-10T07:21:20;13.38;;;8.10;;
70543;SDS011;58097;48.364;-1.224;2022-12-10T07:23:45;14.13;;;7.47;;
70543;SDS011;58097;48.364;-1.224;2022-12-10T07:26:11;17.27;;;7.28;;
70543;SDS011;58097;48.364;-1.224;2022-12-10T07:28:36;9.85;;;6.55;;
70543;SDS011;58097;48.364;-1.224;2022-12-10T07:31:02;9.43;;;6.60;;
70543;SDS011;58097;48.364;-1.224;2022-12-10T07:33:29;10.65;;;6.50;;
70543;SDS011;58097;48.364;-1.224;2022-12-10T07:35:54;11.80;;;8.25;;
70543;SDS011;58097;48.364;-1.224;2022-12-10T07:38:21;15.85;;;8.98;;
70543;SDS011;58097;48.364;-1.224;2022-12-10T07:40:47;18.67;;;7.38;;
70543;SDS011;58097;48.364;-1.224;2022-12-10T07:43:12;14.98;;;8.23;;
70543;SDS011;58097;48.364;-1.224;2022-12-10T07:45:37;15.95;;;8.38;;
70543;SDS011;58097;48.364;-1.224;2022-12-10T07:48:03;13.20;;;8.38;;
70543;SDS011;58097;48.364;-1.224;2022-12-10T07:50:28;23.27;;;10.18;;
70543;SDS011;58097;48.364;-1.224;2022-12-10T07:52:54;17.23;;;9.00;;
70543;SDS011;58097;48.364;-1.224;2022-12-10T07:55:19;16.80;;;9.90;;
70543;SDS011;58097;48.364;-1.224;2022-12-10T07:57:44;22.55;;;11.43;;
70543;SDS011;58097;48.364;-1.224;2022-12-10T08:00:10;24.00;;;13.23;;
70543;SDS011;58097;48.364;-1.224;2022-12-10T08:02:36;28.17;;;14.13;;
70543;SDS011;58097;48.364;-1.224;2022-12-10T08:05:01;31.42;;;15.25;;
70543;SDS011;58097;48.364;-1.224;2022-12-10T08:07:27;27.52;;;14.43;;
70543;SDS011;58097;48.364;-1.224;2022-12-10T08:09:52;25.45;;;14.25;;
70543;SDS011;58097;48.364;-1.224;2022-12-10T08:12:17;28.95;;;13.52;;
70543;SDS011;58097;48.364;-1.224;2022-12-10T08:14:43;35.80;;;14.65;;
70543;SDS011;58097;48.364;-1.224;2022-12-10T08:17:08;29.80;;;13.13;;
70543;SDS011;58097;48.364;-1.224;2022-12-10T08:19:33;26.73;;;14.52;;
70543;SDS011;58097;48.364;-1.224;2022-12-10T08:21:59;22.58;;;12.38;;
70543;SDS011;58097;48.364;-1.224;2022-12-10T08:24:24;32.35;;;14.95;;
70543;SDS011;58097;48.364;-1.224;2022-12-10T08:26:49;28.90;;;15.52;;
70543;SDS011;58097;48.364;-1.224;2022-12-10T08:29:15;29.00;;;15.38;;
70543;SDS011;58097;48.364;-1.224;2022-12-10T08:31:40;31.15;;;17.35;;
70543;SDS011;58097;48.364;-1.224;2022-12-10T08:34:10;27.65;;;16.95;;
70543;SDS011;58097;48.364;-1.224;2022-12-10T08:36:38;29.98;;;16.08;;
70543;SDS011;58097;48.364;-1.224;2022-12-10T08:39:03;28.35;;;15.93;;
70543;SDS011;58097;48.364;-1.224;2022-12-10T08:41:29;26.40;;;14.75;;
70543;SDS011;58097;48.364;-1.224;2022-12-10T08:43:54;25.15;;;14.57;;
70543;SDS011;58097;48.364;-1.224;2022-12-10T08:46:20;24.70;;;15.13;;
70543;SDS011;58097;48.364;-1.224;2022-12-10T08:48:46;24.83;;;13.63;;
70543;SDS011;58097;48.364;-1.224;2022-12-10T08:51:13;26.58;;;14.63;;
70543;SDS011;58097;48.364;-1.224;2022-12-10T08:53:40;29.52;;;15.02;;
70543;SDS011;58097;48.364;-1.224;2022-12-10T08:56:06;22.42;;;14.43;;
70543;SDS011;58097;48.364;-1.224;2022-12-10T08:58:31;23.48;;;13.32;;
70543;SDS011;58097;48.364;-1.224;2022-12-10T09:00:57;36.25;;;15.70;;
70543;SDS011;58097;48.364;-1.224;2022-12-10T09:03:23;22.95;;;15.60;;
70543;SDS011;58097;48.364;-1.224;2022-12-10T09:05:49;30.27;;;16.27;;
70543;SDS011;58097;48.364;-1.224;2022-12-10T09:08:14;30.48;;;17.85;;
70543;SDS011;58097;48.364;-1.224;2022-12-10T09:10:40;31.58;;;18.27;;
70543;SDS011;58097;48.364;-1.224;2022-12-10T09:13:06;29.38;;;17.45;;
70543;SDS011;58097;48.364;-1.224;2022-12-10T09:15:32;31.65;;;17.75;;
70543;SDS011;58097;48.364;-1.224;2022-12-10T09:17:57;30.58;;;19.58;;
70543;SDS011;58097;48.364;-1.224;2022-12-10T09:20:23;33.63;;;18.83;;
70543;SDS011;58097;48.364;-1.224;2022-12-10T09:22:48;32.45;;;18.70;;
70543;SDS011;58097;48.364;-1.224;2022-12-10T09:25:14;39.83;;;21.20;;
70543;SDS011;58097;48.364;-1.224;2022-12-10T09:27:41;39.92;;;20.58;;
70543;SDS011;58097;48.364;-1.224;2022-12-10T09:30:08;29.75;;;18.02;;
70543;SDS011;58097;48.364;-1.224;2022-12-10T09:32:34;24.23;;;14.45;;
70543;SDS011;58097;48.364;-1.224;2022-12-10T09:35:00;26.23;;;15.25;;
70543;SDS011;58097;48.364;-1.224;2022-12-10T09:37:25;29.42;;;15.45;;
70543;SDS011;58097;48.364;-1.224;2022-12-10T09:39:51;24.52;;;15.38;;
70543;SDS011;58097;48.364;-1.224;2022-12-10T09:45:30;23.52;;;13.50;;
70543;SDS011;58097;48.364;-1.224;2022-12-10T09:51:14;23.35;;;14.32;;
70543;SDS011;58097;48.364;-1.224;2022-12-10T09:53:54;29.10;;;15.57;;
70543;SDS011;58097;48.364;-1.224;2022-12-10T09:56:34;25.23;;;15.25;;
70543;SDS011;58097;48.364;-1.224;2022-12-10T09:59:13;23.83;;;13.63;;
70543;SDS011;58097;48.364;-1.224;2022-12-10T10:04:10;28.63;;;14.98;;
70543;SDS011;58097;48.364;-1.224;2022-12-10T10:06:35;32.35;;;16.27;;
70543;SDS011;58097;48.364;-1.224;2022-12-10T10:09:02;24.75;;;15.30;;
70543;SDS011;58097;48.364;-1.224;2022-12-10T10:11:29;20.90;;;14.65;;
70543;SDS011;58097;48.364;-1.224;2022-12-10T10:14:29;29.33;;;16.35;;
70543;SDS011;58097;48.364;-1.224;2022-12-10T10:16:55;24.40;;;14.45;;
70543;SDS011;58097;48.364;-1.224;2022-12-10T10:19:35;22.90;;;12.63;;
70543;SDS011;58097;48.364;-1.224;2022-12-10T10:22:03;26.15;;;14.82;;
70543;SDS011;58097;48.364;-1.224;2022-12-10T10:24:36;21.35;;;13.63;;
70543;SDS011;58097;48.364;-1.224;2022-12-10T10:27:13;28.95;;;16.52;;
70543;SDS011;58097;48.364;-1.224;2022-12-10T10:29:41;25.60;;;15.70;;
70543;SDS011;58097;48.364;-1.224;2022-12-10T10:34:40;24.30;;;15.52;;
70543;SDS011;58097;48.364;-1.224;2022-12-10T10:37:06;21.77;;;14.23;;
70543;SDS011;58097;48.364;-1.224;2022-12-10T10:39:36;29.35;;;14.82;;
70543;SDS011;58097;48.364;-1.224;2022-12-10T10:42:07;25.67;;;16.23;;
70543;SDS011;58097;48.364;-1.224;2022-12-10T10:44:35;27.83;;;16.02;;
70543;SDS011;58097;48.364;-1.224;2022-12-10T10:47:02;29.00;;;15.75;;
70543;SDS011;58097;48.364;-1.224;2022-12-10T10:49:52;23.33;;;15.77;;
70543;SDS011;58097;48.364;-1.224;2022-12-10T10:52:18;23.45;;;15.18;;
70543;SDS011;58097;48.364;-1.224;2022-12-10T10:54:44;22.45;;;13.68;;
70543;SDS011;58097;48.364;-1.224;2022-12-10T10:57:27;22.92;;;14.63;;
70543;SDS011;58097;48.364;-1.224;2022-12-10T11:00:04;22.55;;;14.30;;
70543;SDS011;58097;48.364;-1.224;2022-12-10T11:02:33;20.13;;;12.38;;
70543;SDS011;58097;48.364;-1.224;2022-12-10T11:05:17;22.95;;;13.40;;
70543;SDS011;58097;48.364;-1.224;2022-12-10T11:07:49;21.17;;;13.65;;
70543;SDS011;58097;48.364;-1.224;2022-12-10T11:10:23;21.17;;;12.80;;
70543;SDS011;58097;48.364;-1.224;2022-12-10T11:12:53;25.02;;;13.73;;
70543;SDS011;58097;48.364;-1.224;2022-12-10T11:17:47;17.83;;;10.43;;
70543;SDS011;58097;48.364;-1.224;2022-12-10T11:20:22;16.40;;;10.07;;
70543;SDS011;58097;48.364;-1.224;2022-12-10T11:22:53;13.90;;;10.25;;
70543;SDS011;58097;48.364;-1.224;2022-12-10T11:31:19;10.50;;;7.07;;
70543;SDS011;58097;48.364;-1.224;2022-12-10T11:33:49;16.00;;;7.43;;
70543;SDS011;58097;48.364;-1.224;2022-12-10T11:36:47;9.52;;;6.93;;
70543;SDS011;58097;48.364;-1.224;2022-12-10T11:39:27;9.90;;;5.63;;
70543;SDS011;58097;48.364;-1.224;2022-12-10T11:50:38;7.68;;;5.18;;
70543;SDS011;58097;48.364;-1.224;2022-12-10T11:56:20;8.77;;;5.65;;
70543;SDS011;58097;48.364;-1.224;2022-12-10T11:59:11;8.68;;;5.38;;
70543;SDS011;58097;48.364;-1.224;2022-12-10T12:07:05;17.17;;;9.13;;
70543;SDS011;58097;48.364;-1.224;2022-12-10T12:14:48;18.50;;;10.73;;
70543;SDS011;58097;48.364;-1.224;2022-12-10T12:17:22;16.70;;;10.45;;
70543;SDS011;58097;48.364;-1.224;2022-12-10T12:19:53;17.58;;;11.75;;
70543;SDS011;58097;48.364;-1.224;2022-12-10T12:24:49;22.00;;;12.82;;
70543;SDS011;58097;48.364;-1.224;2022-12-10T12:27:34;29.85;;;17.77;;
70543;SDS011;58097;48.364;-1.224;2022-12-10T12:30:06;32.05;;;17.50;;
70543;SDS011;58097;48.364;-1.224;2022-12-10T12:37:44;15.27;;;11.93;;
70543;SDS011;58097;48.364;-1.224;2022-12-10T12:40:37;17.92;;;11.70;;
70543;SDS011;58097;48.364;-1.224;2022-12-10T12:45:59;11.02;;;7.43;;
70543;SDS011;58097;48.364;-1.224;2022-12-10T12:51:29;14.05;;;9.70;;
70543;SDS011;58097;48.364;-1.224;2022-12-10T12:53:59;15.10;;;8.75;;
70543;SDS011;58097;48.364;-1.224;2022-12-10T13:01:54;15.90;;;10.20;;
70543;SDS011;58097;48.364;-1.224;2022-12-10T13:04:24;18.77;;;11.15;;
70543;SDS011;58097;48.364;-1.224;2022-12-10T13:12:29;31.58;;;19.15;;
70543;SDS011;58097;48.364;-1.224;2022-12-10T13:17:36;26.92;;;15.70;;
70543;SDS011;58097;48.364;-1.224;2022-12-10T13:25:42;25.60;;;14.13;;
70543;SDS011;58097;48.364;-1.224;2022-12-10T13:36:35;22.73;;;11.45;;
70543;SDS011;58097;48.364;-1.224;2022-12-10T13:39:12;14.88;;;10.43;;
70543;SDS011;58097;48.364;-1.224;2022-12-10T13:44:50;19.85;;;10.68;;
70543;SDS011;58097;48.364;-1.224;2022-12-10T13:50:13;16.38;;;10.75;;
70543;SDS011;58097;48.364;-1.224;2022-12-10T13:53:03;17.77;;;10.68;;
70543;SDS011;58097;48.364;-1.224;2022-12-10T13:58:17;17.35;;;11.27;;
70543;SDS011;58097;48.364;-1.224;2022-12-10T14:06:21;20.92;;;11.57;;
70543;SDS011;58097;48.364;-1.224;2022-12-10T14:09:02;20.65;;;11.35;;
70543;SDS011;58097;48.364;-1.224;2022-12-10T14:14:11;18.02;;;12.00;;
70543;SDS011;58097;48.364;-1.224;2022-12-10T14:16:47;17.35;;;10.43;;
70543;SDS011;58097;48.364;-1.224;2022-12-10T14:19:13;18.20;;;12.13;;
70543;SDS011;58097;48.364;-1.224;2022-12-10T14:21:41;17.40;;;10.32;;
70543;SDS011;58097;48.364;-1.224;2022-12-10T14:26:58;15.27;;;9.02;;
70543;SDS011;58097;48.364;-1.224;2022-12-10T14:29:52;12.15;;;7.95;;
70543;SDS011;58097;48.364;-1.224;2022-12-10T14:32:25;14.60;;;9.77;;
70543;SDS011;58097;48.364;-1.224;2022-12-10T14:34:56;15.25;;;9.10;;
70543;SDS011;58097;48.364;-1.224;2022-12-10T14:37:24;16.23;;;10.10;;
70543;SDS011;58097;48.364;-1.224;2022-12-10T14:39:52;15.35;;;9.07;;
70543;SDS011;58097;48.364;-1.224;2022-12-10T14:42:18;13.98;;;9.55;;
70543;SDS011;58097;48.364;-1.224;2022-12-10T14:44:44;15.10;;;9.23;;
70543;SDS011;58097;48.364;-1.224;2022-12-10T14:47:13;13.52;;;8.35;;
70543;SDS011;58097;48.364;-1.224;2022-12-10T14:49:41;14.57;;;9.80;;
70543;SDS011;58097;48.364;-1.224;2022-12-10T14:52:22;12.77;;;8.90;;
70543;SDS011;58097;48.364;-1.224;2022-12-10T14:54:49;16.42;;;9.25;;
70543;SDS011;58097;48.364;-1.224;2022-12-10T14:57:22;17.45;;;8.23;;
70543;SDS011;58097;48.364;-1.224;2022-12-10T15:00:05;12.63;;;8.15;;
70543;SDS011;58097;48.364;-1.224;2022-12-10T15:02:45;13.68;;;8.73;;
70543;SDS011;58097;48.364;-1.224;2022-12-10T15:05:18;13.60;;;8.38;;
70543;SDS011;58097;48.364;-1.224;2022-12-10T15:07:50;20.58;;;8.73;;
70543;SDS011;58097;48.364;-1.224;2022-12-10T15:10:38;13.07;;;9.18;;
70543;SDS011;58097;48.364;-1.224;2022-12-10T15:13:18;14.02;;;8.55;;
70543;SDS011;58097;48.364;-1.224;2022-12-10T15:15:47;17.40;;;7.15;;
70543;SDS011;58097;48.364;-1.224;2022-12-10T15:18:16;9.95;;;7.57;;
70543;SDS011;58097;48.364;-1.224;2022-12-10T15:23:17;14.77;;;7.78;;
70543;SDS011;58097;48.364;-1.224;2022-12-10T15:25:46;15.02;;;7.80;;
70543;SDS011;58097;48.364;-1.224;2022-12-10T15:30:48;10.02;;;6.10;;
70543;SDS011;58097;48.364;-1.224;2022-12-10T15:33:26;10.10;;;7.63;;
70543;SDS011;58097;48.364;-1.224;2022-12-10T15:35:56;13.05;;;8.07;;
70543;SDS011;58097;48.364;-1.224;2022-12-10T15:38:23;14.40;;;8.75;;
70543;SDS011;58097;48.364;-1.224;2022-12-10T15:40:49;15.55;;;7.85;;
70543;SDS011;58097;48.364;-1.224;2022-12-10T15:43:26;12.35;;;7.85;;
70543;SDS011;58097;48.364;-1.224;2022-12-10T15:45:54;12.30;;;6.95;;
70543;SDS011;58097;48.364;-1.224;2022-12-10T15:48:21;12.35;;;7.85;;
70543;SDS011;58097;48.364;-1.224;2022-12-10T15:50:46;11.45;;;8.35;;
70543;SDS011;58097;48.364;-1.224;2022-12-10T15:53:15;16.50;;;9.25;;
70543;SDS011;58097;48.364;-1.224;2022-12-10T15:55:47;15.50;;;9.63;;
70543;SDS011;58097;48.364;-1.224;2022-12-10T15:58:12;10.55;;;7.20;;
70543;SDS011;58097;48.364;-1.224;2022-12-10T16:00:39;16.92;;;9.48;;
70543;SDS011;58097;48.364;-1.224;2022-12-10T16:03:08;26.33;;;12.68;;
70543;SDS011;58097;48.364;-1.224;2022-12-10T16:05:36;35.33;;;16.80;;
70543;SDS011;58097;48.364;-1.224;2022-12-10T16:08:25;49.28;;;20.15;;
70543;SDS011;58097;48.364;-1.224;2022-12-10T16:10:52;59.25;;;23.63;;
70543;SDS011;58097;48.364;-1.224;2022-12-10T16:15:52;48.70;;;21.88;;
70543;SDS011;58097;48.364;-1.224;2022-12-10T16:18:22;53.58;;;21.75;;
70543;SDS011;58097;48.364;-1.224;2022-12-10T16:20:48;36.92;;;17.08;;
70543;SDS011;58097;48.364;-1.224;2022-12-10T16:23:13;29.75;;;14.70;;
70543;SDS011;58097;48.364;-1.224;2022-12-10T16:25:40;27.00;;;12.15;;
70543;SDS011;58097;48.364;-1.224;2022-12-10T16:28:16;24.42;;;13.18;;
70543;SDS011;58097;48.364;-1.224;2022-12-10T16:30:50;22.52;;;11.00;;
70543;SDS011;58097;48.364;-1.224;2022-12-10T16:33:23;27.30;;;12.52;;
70543;SDS011;58097;48.364;-1.224;2022-12-10T16:35:50;24.20;;;10.18;;
70543;SDS011;58097;48.364;-1.224;2022-12-10T16:38:17;16.42;;;10.77;;
70543;SDS011;58097;48.364;-1.224;2022-12-10T16:40:43;17.83;;;10.65;;
70543;SDS011;58097;48.364;-1.224;2022-12-10T16:43:17;21.70;;;12.15;;